createdAt,value
2019-05-23T00:00:37.825Z,14.80
2019-05-23T00:03:07.700Z,14.80
2019-05-23T00:05:53.162Z,14.70
2019-05-23T00:08:26.598Z,14.60
2019-05-23T00:11:01.858Z,14.60
2019-05-23T00:13:57.844Z,14.60
2019-05-23T00:16:28.508Z,14.60
2019-05-23T00:18:58.614Z,14.50
2019-05-23T00:21:28.521Z,14.40
2019-05-23T00:23:58.098Z,14.30
2019-05-23T00:26:27.597Z,14.20
2019-05-23T00:29:09.565Z,14.20
2019-05-23T00:31:37.221Z,14.20
2019-05-23T00:34:06.814Z,14.20
2019-05-23T00:36:38.100Z,14.10
2019-05-23T00:39:09.674Z,14.10
2019-05-23T00:41:40.529Z,14.10
2019-05-23T00:44:10.682Z,14.10
2019-05-23T00:46:40.174Z,14.10
2019-05-23T00:49:09.668Z,14.20
2019-05-23T00:51:39.868Z,14.20
2019-05-23T00:54:09.297Z,14.30
2019-05-23T00:56:39.465Z,14.40
2019-05-23T00:59:09.015Z,14.40
2019-05-23T01:01:38.942Z,14.30
2019-05-23T01:04:09.564Z,14.30
2019-05-23T01:06:39.186Z,14.30
2019-05-23T01:09:08.855Z,14.30
2019-05-23T01:11:38.519Z,14.30
2019-05-23T01:14:08.477Z,14.20
2019-05-23T01:16:38.893Z,14.20
2019-05-23T01:19:08.865Z,14.20
2019-05-23T01:21:47.682Z,14.20
2019-05-23T01:24:36.261Z,14.20
2019-05-23T01:27:05.955Z,14.10
2019-05-23T01:29:49.943Z,14.10
2019-05-23T01:32:24.449Z,14.20
2019-05-23T01:34:54.067Z,14.20
2019-05-23T01:37:24.369Z,14.10
2019-05-23T01:39:53.752Z,14.10
2019-05-23T01:42:23.452Z,14.10
2019-05-23T01:44:54.660Z,14.10
2019-05-23T01:47:24.183Z,14.10
2019-05-23T01:49:54.686Z,14.10
2019-05-23T01:52:24.050Z,14.10
2019-05-23T01:54:53.421Z,14.00
2019-05-23T01:57:23.543Z,14.10
2019-05-23T02:00:08.293Z,14.10
2019-05-23T02:02:24.982Z,14.00
2019-05-23T02:04:54.336Z,14.00
2019-05-23T02:07:24.188Z,13.90
2019-05-23T02:09:54.200Z,13.90
2019-05-23T02:12:23.585Z,13.90
2019-05-23T02:14:52.899Z,13.90
2019-05-23T02:17:22.581Z,13.90
2019-05-23T02:19:51.963Z,13.90
2019-05-23T02:22:21.642Z,13.80
2019-05-23T02:24:51.125Z,13.80
2019-05-23T02:27:21.089Z,13.80
2019-05-23T02:29:50.469Z,13.80
2019-05-23T02:32:20.569Z,13.70
2019-05-23T02:34:51.165Z,13.70
2019-05-23T02:37:34.674Z,13.80
2019-05-23T02:40:15.160Z,13.80
2019-05-23T02:42:48.329Z,13.80
2019-05-23T02:45:23.077Z,13.60
2019-05-23T02:47:52.813Z,13.60
2019-05-23T02:50:28.622Z,13.50
2019-05-23T02:52:59.733Z,13.50
2019-05-23T02:55:37.594Z,13.40
2019-05-23T02:58:22.630Z,13.20
2019-05-23T03:01:12.194Z,13.20
2019-05-23T03:03:42.173Z,13.20
2019-05-23T03:06:17.537Z,13.20
2019-05-23T03:08:48.762Z,13.10
2019-05-23T03:11:39.140Z,13.10
2019-05-23T03:14:11.570Z,13.00
2019-05-23T03:16:43.864Z,13.10
2019-05-23T03:19:21.761Z,13.10
2019-05-23T03:21:55.309Z,13.00
2019-05-23T03:24:25.356Z,13.00
2019-05-23T03:27:15.402Z,13.00
2019-05-23T03:29:45.125Z,13.00
2019-05-23T03:32:38.841Z,13.10
2019-05-23T03:35:22.073Z,13.10
2019-05-23T03:37:53.666Z,13.10
2019-05-23T03:40:23.901Z,13.00
2019-05-23T03:42:53.381Z,13.00
2019-05-23T03:45:26.463Z,13.00
2019-05-23T03:47:56.425Z,12.90
2019-05-23T03:50:27.452Z,12.80
2019-05-23T03:52:56.850Z,12.80
2019-05-23T03:55:28.712Z,12.70
2019-05-23T03:58:00.903Z,12.70
2019-05-23T04:00:34.516Z,12.70
2019-05-23T04:03:04.618Z,12.80
2019-05-23T04:05:35.630Z,12.70
2019-05-23T04:08:05.975Z,12.60
2019-05-23T04:10:35.461Z,12.70
2019-05-23T04:13:05.170Z,12.70
2019-05-23T04:15:34.654Z,12.70
2019-05-23T04:18:04.398Z,12.70
2019-05-23T04:20:33.788Z,12.70
2019-05-23T04:23:03.264Z,12.70
2019-05-23T04:25:32.949Z,12.80
2019-05-23T04:28:02.737Z,12.90
2019-05-23T04:30:32.155Z,12.90
2019-05-23T04:33:01.530Z,12.90
2019-05-23T04:35:31.419Z,12.90
2019-05-23T04:38:00.928Z,12.90
2019-05-23T04:40:31.899Z,12.90
2019-05-23T04:43:01.393Z,12.80
2019-05-23T04:45:31.310Z,12.80
2019-05-23T04:48:00.561Z,12.70
2019-05-23T04:50:30.829Z,12.70
2019-05-23T04:53:00.409Z,12.70
2019-05-23T04:55:30.020Z,12.80
2019-05-23T04:58:03.969Z,12.80
2019-05-23T05:00:31.141Z,12.80
2019-05-23T05:03:00.610Z,12.90
2019-05-23T05:05:31.149Z,12.90
2019-05-23T05:08:00.566Z,12.90
2019-05-23T05:10:30.982Z,12.80
2019-05-23T05:13:00.964Z,12.90
2019-05-23T05:15:30.439Z,12.90
2019-05-23T05:17:59.892Z,12.90
2019-05-23T05:20:29.402Z,12.80
2019-05-23T05:22:58.865Z,12.90
2019-05-23T05:25:29.259Z,12.90
2019-05-23T05:27:59.320Z,12.90
2019-05-23T05:30:28.724Z,13.00
2019-05-23T05:32:58.110Z,13.00
2019-05-23T05:35:29.251Z,13.10
2019-05-23T05:37:58.796Z,13.20
2019-05-23T05:40:28.607Z,13.30
2019-05-23T05:42:58.168Z,13.30
2019-05-23T05:45:27.532Z,13.30
2019-05-23T05:47:57.019Z,13.40
2019-05-23T05:50:26.467Z,13.50
2019-05-23T05:52:56.154Z,13.50
2019-05-23T05:55:25.712Z,13.50
2019-05-23T05:57:55.096Z,13.50
2019-05-23T06:00:52.750Z,13.50
2019-05-23T06:03:22.085Z,13.60
2019-05-23T06:05:58.142Z,13.60
2019-05-23T06:08:27.965Z,13.60
2019-05-23T06:10:58.032Z,13.70
2019-05-23T06:13:28.432Z,13.80
2019-05-23T06:15:57.790Z,13.80
2019-05-23T06:18:27.775Z,14.00
2019-05-23T06:20:57.302Z,14.00
2019-05-23T06:23:26.707Z,14.00
2019-05-23T06:25:55.960Z,14.00
2019-05-23T06:28:26.031Z,14.00
2019-05-23T06:30:55.772Z,14.00
2019-05-23T06:33:26.131Z,14.10
2019-05-23T06:35:55.775Z,14.20
2019-05-23T06:38:25.994Z,14.20
2019-05-23T06:40:55.802Z,14.40
2019-05-23T06:43:25.660Z,14.40
2019-05-23T06:45:54.971Z,14.40
2019-05-23T06:48:25.549Z,14.50
2019-05-23T06:50:54.796Z,14.60
2019-05-23T06:53:24.078Z,14.70
2019-05-23T06:55:53.621Z,14.80
2019-05-23T06:58:23.529Z,14.90
2019-05-23T07:00:53.587Z,15.00
2019-05-23T07:03:39.836Z,15.10
2019-05-23T07:05:54.088Z,15.20
2019-05-23T07:08:26.533Z,15.30
2019-05-23T07:10:56.004Z,15.40
2019-05-23T07:13:27.562Z,15.50
2019-05-23T07:15:56.926Z,15.60
2019-05-23T07:18:26.397Z,15.60
2019-05-23T07:20:55.654Z,15.70
2019-05-23T07:23:25.194Z,15.80
2019-05-23T07:25:54.407Z,16.00
2019-05-23T07:28:23.735Z,16.00
2019-05-23T07:30:53.062Z,16.20
2019-05-23T07:33:22.322Z,16.20
2019-05-23T07:35:51.935Z,16.30
2019-05-23T07:38:21.169Z,16.40
2019-05-23T07:40:50.887Z,16.50
2019-05-23T07:43:20.504Z,16.70
2019-05-23T07:45:53.204Z,16.80
2019-05-23T07:48:22.465Z,16.90
2019-05-23T07:50:51.669Z,17.00
2019-05-23T07:53:43.747Z,17.00
2019-05-23T07:56:13.460Z,17.10
2019-05-23T07:58:42.848Z,17.30
2019-05-23T08:01:14.137Z,17.40
2019-05-23T08:03:43.900Z,17.50
2019-05-23T08:06:13.920Z,17.50
2019-05-23T08:08:43.557Z,17.60
2019-05-23T08:11:12.947Z,17.70
2019-05-23T08:13:42.613Z,17.70
2019-05-23T08:16:12.321Z,17.70
2019-05-23T08:18:42.422Z,17.70
2019-05-23T08:21:11.806Z,17.70
2019-05-23T08:23:41.200Z,17.70
2019-05-23T08:26:10.933Z,17.80
2019-05-23T08:29:00.484Z,17.90
2019-05-23T08:31:12.273Z,18.10
2019-05-23T08:33:41.875Z,18.20
2019-05-23T08:36:11.818Z,18.30
2019-05-23T08:38:41.325Z,18.30
2019-05-23T08:41:11.894Z,18.30
2019-05-23T08:43:41.958Z,18.30
2019-05-23T08:46:11.647Z,18.30
2019-05-23T08:48:41.078Z,18.30
2019-05-23T08:51:10.668Z,18.40
2019-05-23T08:53:40.159Z,18.50
2019-05-23T08:56:18.424Z,18.70
2019-05-23T08:58:41.056Z,18.70
2019-05-23T09:01:11.823Z,18.70
2019-05-23T09:03:41.535Z,18.80
2019-05-23T09:06:11.302Z,18.90
2019-05-23T09:08:41.435Z,19.00
2019-05-23T09:11:11.480Z,19.20
2019-05-23T09:13:40.906Z,19.30
2019-05-23T09:16:10.732Z,19.50
2019-05-23T09:18:40.200Z,19.70
2019-05-23T09:21:11.655Z,20.00
2019-05-23T09:23:40.829Z,20.20
2019-05-23T09:26:10.124Z,20.20
2019-05-23T09:28:39.509Z,20.20
2019-05-23T09:31:09.433Z,20.10
2019-05-23T09:33:38.854Z,20.20
2019-05-23T09:36:08.678Z,20.20
2019-05-23T09:38:38.068Z,20.30
2019-05-23T09:41:07.492Z,20.40
2019-05-23T09:43:36.859Z,20.40
2019-05-23T09:46:06.477Z,20.50
2019-05-23T09:48:36.388Z,20.80
2019-05-23T09:51:05.980Z,20.80
2019-05-23T09:53:35.507Z,20.80
2019-05-23T09:56:05.019Z,20.90
2019-05-23T09:58:34.415Z,20.90
2019-05-23T10:01:04.472Z,20.90
2019-05-23T10:03:33.892Z,20.80
2019-05-23T10:06:03.441Z,21.00
2019-05-23T10:08:33.026Z,21.00
2019-05-23T10:11:03.541Z,21.10
2019-05-23T10:13:38.919Z,21.10
2019-05-23T10:16:06.455Z,21.30
2019-05-23T10:18:36.024Z,21.40
2019-05-23T10:21:06.904Z,21.70
2019-05-23T10:23:36.260Z,22.00
2019-05-23T10:26:06.238Z,22.00
2019-05-23T10:28:35.635Z,22.10
2019-05-23T10:31:07.803Z,22.20
2019-05-23T10:33:37.530Z,22.30
2019-05-23T10:36:06.823Z,22.50
2019-05-23T10:38:36.217Z,22.50
2019-05-23T10:41:06.026Z,22.40
2019-05-23T10:43:35.449Z,22.30
2019-05-23T10:46:04.942Z,22.40
2019-05-23T10:48:34.595Z,22.40
2019-05-23T10:51:04.496Z,22.60
2019-05-23T10:53:33.885Z,22.90
2019-05-23T10:56:03.241Z,23.20
2019-05-23T10:58:32.575Z,23.20
2019-05-23T11:01:01.960Z,23.10
2019-05-23T11:03:31.691Z,23.20
2019-05-23T11:06:14.946Z,23.20
2019-05-23T11:08:32.110Z,23.30
2019-05-23T11:11:01.734Z,23.20
2019-05-23T11:13:31.284Z,23.30
2019-05-23T11:16:00.762Z,23.50
2019-05-23T11:18:30.265Z,23.80
2019-05-23T11:20:59.650Z,23.70
2019-05-23T11:23:35.988Z,23.80
2019-05-23T11:26:06.195Z,23.80
2019-05-23T11:28:37.284Z,24.00
2019-05-23T11:31:08.207Z,24.30
2019-05-23T11:33:37.586Z,24.70
2019-05-23T11:36:07.293Z,24.30
2019-05-23T11:38:36.670Z,24.40
2019-05-23T11:41:06.039Z,24.80
2019-05-23T11:43:35.416Z,24.90
2019-05-23T11:46:13.960Z,24.90
2019-05-23T11:48:43.291Z,24.70
2019-05-23T11:51:12.663Z,24.90
2019-05-23T11:53:45.463Z,25.40
2019-05-23T11:56:13.275Z,26.50
2019-05-23T11:58:42.587Z,26.90
2019-05-23T12:01:43.746Z,27.30
2019-05-23T12:04:18.159Z,27.40
2019-05-23T12:07:15.471Z,27.20
2019-05-23T12:09:44.843Z,27.80
2019-05-23T12:12:14.260Z,28.00
2019-05-23T12:14:43.540Z,27.90
2019-05-23T12:17:14.546Z,28.40
2019-05-23T12:19:44.111Z,28.20
2019-05-23T12:22:14.512Z,27.60
2019-05-23T12:24:44.044Z,28.80
2019-05-23T12:27:15.042Z,30.40
2019-05-23T12:29:44.620Z,30.10
2019-05-23T12:32:14.622Z,30.40
2019-05-23T12:34:44.141Z,29.80
2019-05-23T12:37:19.092Z,28.70
2019-05-23T12:39:44.676Z,28.80
2019-05-23T12:42:14.198Z,29.20
2019-05-23T12:44:43.556Z,28.70
2019-05-23T12:47:21.733Z,28.00
2019-05-23T12:49:55.267Z,27.60
2019-05-23T12:52:24.761Z,29.10
2019-05-23T12:54:54.393Z,29.40
2019-05-23T12:57:23.749Z,28.90
2019-05-23T12:59:53.242Z,28.10
2019-05-23T13:02:25.720Z,27.30
2019-05-23T13:04:55.081Z,27.60
2019-05-23T13:07:35.875Z,28.40
2019-05-23T13:09:55.706Z,29.50
2019-05-23T13:12:25.640Z,30.70
2019-05-23T13:14:58.738Z,30.20
2019-05-23T13:17:26.334Z,29.10
2019-05-23T13:19:55.609Z,28.20
2019-05-23T13:22:25.009Z,27.70
2019-05-23T13:24:54.299Z,28.60
2019-05-23T13:27:23.758Z,30.50
2019-05-23T13:29:53.072Z,32.00
2019-05-23T13:32:22.770Z,31.00
2019-05-23T13:34:52.146Z,30.30
2019-05-23T13:37:22.933Z,30.00
2019-05-23T13:39:52.343Z,30.00
2019-05-23T13:42:21.727Z,28.80
2019-05-23T13:44:51.621Z,28.60
2019-05-23T13:47:20.951Z,28.40
2019-05-23T13:49:50.378Z,28.10
2019-05-23T13:52:19.745Z,27.20
2019-05-23T13:54:49.120Z,26.50
2019-05-23T13:57:18.719Z,26.10
2019-05-23T13:59:48.036Z,26.00
2019-05-23T14:02:17.487Z,27.60
2019-05-23T14:04:46.874Z,30.20
2019-05-23T14:07:16.852Z,32.00
2019-05-23T14:09:46.392Z,34.10
2019-05-23T14:12:21.614Z,34.50
2019-05-23T14:14:48.386Z,33.30
2019-05-23T14:17:32.836Z,32.10
2019-05-23T14:20:02.286Z,30.60
2019-05-23T14:22:33.213Z,29.30
2019-05-23T14:25:02.633Z,27.80
2019-05-23T14:27:39.204Z,27.30
2019-05-23T14:30:17.310Z,26.80
2019-05-23T14:32:52.153Z,27.40
2019-05-23T14:35:25.948Z,27.50
2019-05-23T14:37:56.895Z,27.40
2019-05-23T14:40:26.356Z,27.20
2019-05-23T14:43:15.886Z,27.70
2019-05-23T14:45:50.913Z,29.50
2019-05-23T14:48:37.969Z,31.00
2019-05-23T14:51:25.126Z,30.80
2019-05-23T14:53:59.733Z,30.30
2019-05-23T14:56:31.383Z,29.80
2019-05-23T14:59:00.733Z,29.40
2019-05-23T15:01:32.161Z,29.80
2019-05-23T15:04:02.002Z,29.80
2019-05-23T15:06:31.651Z,28.90
2019-05-23T15:09:01.045Z,28.50
2019-05-23T15:11:30.505Z,28.00
2019-05-23T15:13:59.967Z,27.20
2019-05-23T15:16:29.361Z,27.00
2019-05-23T15:18:58.960Z,26.60
2019-05-23T15:21:28.276Z,25.90
2019-05-23T15:23:57.605Z,25.40
2019-05-23T15:26:27.020Z,25.20
2019-05-23T15:28:56.429Z,24.80
2019-05-23T15:31:26.196Z,24.70
2019-05-23T15:33:55.585Z,24.70
2019-05-23T15:36:25.039Z,24.60
2019-05-23T15:39:09.165Z,24.60
2019-05-23T15:41:25.639Z,24.50
2019-05-23T15:43:55.061Z,24.40
2019-05-23T15:46:24.384Z,24.30
2019-05-23T15:48:53.746Z,24.20
2019-05-23T15:51:30.080Z,24.00
2019-05-23T15:54:08.025Z,24.00
2019-05-23T15:57:08.308Z,23.90
2019-05-23T15:59:48.243Z,24.10
2019-05-23T16:02:23.533Z,24.30
2019-05-23T16:04:55.303Z,25.80
2019-05-23T16:07:25.079Z,27.80
2019-05-23T16:09:54.613Z,29.60
2019-05-23T16:12:24.169Z,30.30
2019-05-23T16:14:53.860Z,30.80
2019-05-23T16:17:23.394Z,30.50
2019-05-23T16:19:52.860Z,29.90
2019-05-23T16:22:22.260Z,30.30
2019-05-23T16:24:51.684Z,31.10
2019-05-23T16:27:21.628Z,32.40
2019-05-23T16:29:51.137Z,32.40
2019-05-23T16:32:20.572Z,31.40
2019-05-23T16:34:49.976Z,30.30
2019-05-23T16:37:20.457Z,29.70
2019-05-23T16:39:50.292Z,29.50
2019-05-23T16:42:20.100Z,29.30
2019-05-23T16:44:49.658Z,28.70
2019-05-23T16:47:21.270Z,28.00
2019-05-23T16:49:50.630Z,27.80
2019-05-23T16:52:20.302Z,28.60
2019-05-23T16:54:51.370Z,28.80
2019-05-23T16:57:32.330Z,28.40
2019-05-23T17:00:21.105Z,28.00
2019-05-23T17:02:59.614Z,28.00
2019-05-23T17:05:51.744Z,28.00
2019-05-23T17:08:50.704Z,28.00
2019-05-23T17:11:39.243Z,26.70
2019-05-23T17:14:26.457Z,25.80
2019-05-23T17:17:42.972Z,25.10
2019-05-23T17:20:01.183Z,24.40
2019-05-23T17:22:58.576Z,24.10
2019-05-23T17:25:53.401Z,23.90
2019-05-23T17:28:30.890Z,23.40
2019-05-23T17:31:05.305Z,23.30
2019-05-23T17:33:37.170Z,23.10
2019-05-23T17:36:06.979Z,23.00
2019-05-23T17:38:36.382Z,22.80
2019-05-23T17:41:06.131Z,22.70
2019-05-23T17:43:35.619Z,22.60
2019-05-23T17:46:05.026Z,22.50
2019-05-23T17:48:34.435Z,22.60
2019-05-23T17:51:03.821Z,23.10
2019-05-23T17:53:33.261Z,23.50
2019-05-23T17:56:03.355Z,23.60
2019-05-23T17:58:33.069Z,23.50
2019-05-23T18:01:02.691Z,23.40
2019-05-23T18:03:32.207Z,23.40
2019-05-23T18:06:01.677Z,23.60
2019-05-23T18:08:31.717Z,23.70
2019-05-23T18:11:01.214Z,23.50
2019-05-23T18:13:30.644Z,23.50
2019-05-23T18:16:00.039Z,23.60
2019-05-23T18:18:29.543Z,23.80
2019-05-23T18:20:59.195Z,23.70
2019-05-23T18:23:28.757Z,23.80
2019-05-23T18:25:59.916Z,23.80
2019-05-23T18:28:29.510Z,23.70
2019-05-23T18:31:09.928Z,23.70
2019-05-23T18:33:37.962Z,23.30
2019-05-23T18:36:09.220Z,23.10
2019-05-23T18:38:39.282Z,23.00
2019-05-23T18:41:09.625Z,23.00
2019-05-23T18:43:39.222Z,22.80
2019-05-23T18:46:13.708Z,22.70
2019-05-23T18:48:43.200Z,22.50
2019-05-23T18:51:12.701Z,22.50
2019-05-23T18:53:42.438Z,22.30
2019-05-23T18:56:12.084Z,22.30
2019-05-23T18:58:41.659Z,22.10
2019-05-23T19:01:14.009Z,22.00
2019-05-23T19:03:44.193Z,21.90
2019-05-23T19:06:13.619Z,21.80
2019-05-23T19:08:43.036Z,21.70
2019-05-23T19:11:20.707Z,21.60
2019-05-23T19:13:44.513Z,21.50
2019-05-23T19:16:14.062Z,21.30
2019-05-23T19:18:43.838Z,21.20
2019-05-23T19:21:16.720Z,21.10
2019-05-23T19:23:48.138Z,21.10
2019-05-23T19:26:19.608Z,21.00
2019-05-23T19:28:50.100Z,20.90
2019-05-23T19:31:21.025Z,20.80
2019-05-23T19:33:50.366Z,20.80
2019-05-23T19:36:19.855Z,20.60
2019-05-23T19:38:49.685Z,20.50
2019-05-23T19:41:36.816Z,20.40
2019-05-23T19:43:55.327Z,20.40
2019-05-23T19:46:25.075Z,20.40
2019-05-23T19:48:56.113Z,20.30
2019-05-23T19:51:25.776Z,20.40
2019-05-23T19:53:56.194Z,20.30
2019-05-23T19:56:25.601Z,20.20
2019-05-23T20:00:16.130Z,20.20
2019-05-23T20:04:06.985Z,20.10
2019-05-23T20:06:08.292Z,20.20
2019-05-23T20:08:37.799Z,20.20
2019-05-23T20:11:08.058Z,20.10
2019-05-23T20:13:37.403Z,20.00
2019-05-23T20:16:07.442Z,20.00
2019-05-23T20:18:36.941Z,19.80
2019-05-23T20:21:06.265Z,19.70
2019-05-23T20:23:35.490Z,19.60
2019-05-23T20:26:07.892Z,19.50
2019-05-23T20:28:39.538Z,19.40
2019-05-23T20:31:07.441Z,19.40
2019-05-23T20:33:37.008Z,19.30
2019-05-23T20:36:12.336Z,19.40
2019-05-23T20:38:41.289Z,19.40
2019-05-23T20:41:10.960Z,19.30
2019-05-23T20:43:40.409Z,19.40
2019-05-23T20:46:09.816Z,19.30
2019-05-23T20:48:39.823Z,19.30
2019-05-23T20:51:09.310Z,19.20
2019-05-23T20:53:52.324Z,19.10
2019-05-23T20:56:21.676Z,19.10
2019-05-23T20:59:09.629Z,19.00
2019-05-23T21:01:40.956Z,19.00
2019-05-23T21:04:10.363Z,19.10
2019-05-23T21:06:39.766Z,19.10
2019-05-23T21:15:36.929Z,19.10
2019-05-23T21:18:06.349Z,19.00
2019-05-23T21:20:35.828Z,19.00
2019-05-23T21:23:05.403Z,18.90
2019-05-23T21:25:35.896Z,18.80
2019-05-23T21:28:05.308Z,18.70
2019-05-23T21:30:34.932Z,18.70
2019-05-23T21:33:04.227Z,18.60
2019-05-23T21:35:33.614Z,18.70
2019-05-23T21:38:03.011Z,18.60
2019-05-23T21:40:42.648Z,18.60
2019-05-23T21:43:12.954Z,18.60
2019-05-23T21:45:42.545Z,18.50
2019-05-23T21:48:12.080Z,18.30
2019-05-23T21:50:42.094Z,18.20
2019-05-23T21:53:11.641Z,18.10
2019-05-23T21:55:42.289Z,18.00
2019-05-23T21:58:12.677Z,18.00
2019-05-23T22:01:19.656Z,18.00
2019-05-23T22:03:56.244Z,18.00
2019-05-23T22:06:28.101Z,18.00
2019-05-23T22:08:57.823Z,17.90
2019-05-23T22:11:27.111Z,17.90
2019-05-23T22:13:56.451Z,17.80
2019-05-23T22:16:26.005Z,17.80
2019-05-23T22:18:55.298Z,17.80
2019-05-23T22:21:24.720Z,17.80
2019-05-23T22:23:54.029Z,17.80
2019-05-23T22:26:23.349Z,17.70
2019-05-23T22:28:52.531Z,17.70
2019-05-23T22:31:22.266Z,17.70
2019-05-23T22:33:57.400Z,17.70
2019-05-23T22:36:26.751Z,17.60
2019-05-23T22:38:55.994Z,17.50
2019-05-23T22:41:25.355Z,17.40
2019-05-23T22:43:54.683Z,17.40
2019-05-23T22:46:25.621Z,17.30
2019-05-23T22:48:54.929Z,17.30
2019-05-23T22:51:25.238Z,17.30
2019-05-23T22:53:54.521Z,17.20
2019-05-23T22:56:23.708Z,17.20
2019-05-23T22:58:52.977Z,17.20
2019-05-23T23:01:23.880Z,17.20
2019-05-23T23:03:53.140Z,17.10
2019-05-23T23:06:22.557Z,17.00
2019-05-23T23:08:51.901Z,17.00
2019-05-23T23:11:21.117Z,17.00
2019-05-23T23:13:50.412Z,16.90
2019-05-23T23:16:19.674Z,16.80
2019-05-23T23:18:49.006Z,16.90
2019-05-23T23:21:18.237Z,16.80
2019-05-23T23:23:47.576Z,16.80
2019-05-23T23:26:16.884Z,16.80
2019-05-23T23:28:46.189Z,16.80
2019-05-23T23:31:15.436Z,16.80
2019-05-23T23:33:44.697Z,16.80
2019-05-23T23:36:14.013Z,16.80
2019-05-23T23:38:43.242Z,16.70
2019-05-23T23:41:12.473Z,16.60
2019-05-23T23:43:58.175Z,16.60
2019-05-23T23:46:30.949Z,16.60
2019-05-23T23:49:17.673Z,16.60
2019-05-23T23:52:04.611Z,16.60
2019-05-23T23:54:51.356Z,16.60
2019-05-23T23:57:38.231Z,16.70
